sensor_id;sensor_type;location;lat;lon;timestamp;temperature;humidity
14057;DHT22;7103;54.300;10.180;2023-07-22T00:00:49;14.70;1.00
14057;DHT22;7103;54.300;10.180;2023-07-22T00:03:16;14.70;1.00
14057;DHT22;7103;54.300;10.180;2023-07-22T00:05:43;14.70;1.00
14057;DHT22;7103;54.300;10.180;2023-07-22T00:08:10;14.60;1.00
14057;DHT22;7103;54.300;10.180;2023-07-22T00:10:43;14.60;1.00
14057;DHT22;7103;54.300;10.180;2023-07-22T00:13:11;14.60;1.00
14057;DHT22;7103;54.300;10.180;2023-07-22T00:15:38;14.60;1.00
14057;DHT22;7103;54.300;10.180;2023-07-22T00:18:05;14.50;1.00
14057;DHT22;7103;54.300;10.180;2023-07-22T00:20:32;14.50;1.00
14057;DHT22;7103;54.300;10.180;2023-07-22T00:22:59;14.50;1.00
14057;DHT22;7103;54.300;10.180;2023-07-22T00:25:26;14.40;1.00
14057;DHT22;7103;54.300;10.180;2023-07-22T00:27:53;14.40;1.00
14057;DHT22;7103;54.300;10.180;2023-07-22T00:30:20;14.40;1.00
14057;DHT22;7103;54.300;10.180;2023-07-22T00:32:46;14.50;1.00
14057;DHT22;7103;54.300;10.180;2023-07-22T00:35:13;14.50;1.00
14057;DHT22;7103;54.300;10.180;2023-07-22T00:37:40;14.50;1.00
14057;DHT22;7103;54.300;10.180;2023-07-22T00:40:08;14.40;1.00
14057;DHT22;7103;54.300;10.180;2023-07-22T00:42:39;14.50;1.00
14057;DHT22;7103;54.300;10.180;2023-07-22T00:45:07;14.60;1.00
14057;DHT22;7103;54.300;10.180;2023-07-22T00:47:35;14.60;1.00
14057;DHT22;7103;54.300;10.180;2023-07-22T00:50:03;14.50;1.00
14057;DHT22;7103;54.300;10.180;2023-07-22T00:52:30;14.50;1.00
14057;DHT22;7103;54.300;10.180;2023-07-22T00:54:57;14.50;1.00
14057;DHT22;7103;54.300;10.180;2023-07-22T00:57:25;14.50;1.00
14057;DHT22;7103;54.300;10.180;2023-07-22T00:59:51;14.50;1.00
14057;DHT22;7103;54.300;10.180;2023-07-22T01:02:19;14.40;1.00
14057;DHT22;7103;54.300;10.180;2023-07-22T01:04:47;14.50;1.00
14057;DHT22;7103;54.300;10.180;2023-07-22T01:07:15;14.50;1.00
14057;DHT22;7103;54.300;10.180;2023-07-22T01:09:43;14.40;1.00
14057;DHT22;7103;54.300;10.180;2023-07-22T01:12:11;14.30;1.00
14057;DHT22;7103;54.300;10.180;2023-07-22T01:14:39;14.30;1.00
14057;DHT22;7103;54.300;10.180;2023-07-22T01:17:08;14.20;1.00
14057;DHT22;7103;54.300;10.180;2023-07-22T01:19:36;14.30;1.00
14057;DHT22;7103;54.300;10.180;2023-07-22T01:22:05;14.20;1.00
14057;DHT22;7103;54.300;10.180;2023-07-22T01:24:35;14.10;1.00
14057;DHT22;7103;54.300;10.180;2023-07-22T01:27:03;14.10;1.00
14057;DHT22;7103;54.300;10.180;2023-07-22T01:29:31;14.10;1.00
14057;DHT22;7103;54.300;10.180;2023-07-22T01:31:58;14.00;1.00
14057;DHT22;7103;54.300;10.180;2023-07-22T01:34:26;14.00;1.00
14057;DHT22;7103;54.300;10.180;2023-07-22T01:36:52;14.00;1.00
14057;DHT22;7103;54.300;10.180;2023-07-22T01:39:20;14.00;1.00
14057;DHT22;7103;54.300;10.180;2023-07-22T01:41:48;14.00;1.00
14057;DHT22;7103;54.300;10.180;2023-07-22T01:44:15;14.00;1.00
14057;DHT22;7103;54.300;10.180;2023-07-22T01:46:42;14.00;1.00
14057;DHT22;7103;54.300;10.180;2023-07-22T01:49:11;13.90;1.00
14057;DHT22;7103;54.300;10.180;2023-07-22T01:51:40;13.90;1.00
14057;DHT22;7103;54.300;10.180;2023-07-22T01:54:07;13.90;1.00
14057;DHT22;7103;54.300;10.180;2023-07-22T01:56:36;13.80;1.00
14057;DHT22;7103;54.300;10.180;2023-07-22T01:59:03;13.90;1.00
14057;DHT22;7103;54.300;10.180;2023-07-22T02:01:31;13.90;1.00
14057;DHT22;7103;54.300;10.180;2023-07-22T02:03:58;13.90;1.00
14057;DHT22;7103;54.300;10.180;2023-07-22T02:06:26;13.90;1.00
14057;DHT22;7103;54.300;10.180;2023-07-22T02:08:54;13.90;1.00
14057;DHT22;7103;54.300;10.180;2023-07-22T02:11:22;13.90;1.00
14057;DHT22;7103;54.300;10.180;2023-07-22T02:13:49;13.90;1.00
14057;DHT22;7103;54.300;10.180;2023-07-22T02:16:16;13.90;1.00
14057;DHT22;7103;54.300;10.180;2023-07-22T02:18:43;14.00;1.00
14057;DHT22;7103;54.300;10.180;2023-07-22T02:21:10;14.10;1.00
14057;DHT22;7103;54.300;10.180;2023-07-22T02:23:37;14.10;1.00
14057;DHT22;7103;54.300;10.180;2023-07-22T02:26:04;14.10;1.00
14057;DHT22;7103;54.300;10.180;2023-07-22T02:28:32;14.00;1.00
14057;DHT22;7103;54.300;10.180;2023-07-22T02:31:02;13.90;1.00
14057;DHT22;7103;54.300;10.180;2023-07-22T02:33:32;13.80;1.00
14057;DHT22;7103;54.300;10.180;2023-07-22T02:35:59;13.70;1.00
14057;DHT22;7103;54.300;10.180;2023-07-22T02:38:26;13.70;1.00
14057;DHT22;7103;54.300;10.180;2023-07-22T02:40:53;13.70;1.00
14057;DHT22;7103;54.300;10.180;2023-07-22T02:43:20;13.80;1.00
14057;DHT22;7103;54.300;10.180;2023-07-22T02:45:47;13.80;1.00
14057;DHT22;7103;54.300;10.180;2023-07-22T02:48:14;13.70;1.00
14057;DHT22;7103;54.300;10.180;2023-07-22T02:50:41;13.80;1.00
14057;DHT22;7103;54.300;10.180;2023-07-22T02:53:08;13.70;1.00
14057;DHT22;7103;54.300;10.180;2023-07-22T02:55:35;13.80;1.00
14057;DHT22;7103;54.300;10.180;2023-07-22T02:58:02;13.80;1.00
14057;DHT22;7103;54.300;10.180;2023-07-22T03:00:29;13.90;1.00
14057;DHT22;7103;54.300;10.180;2023-07-22T03:02:56;13.90;1.00
14057;DHT22;7103;54.300;10.180;2023-07-22T03:05:32;13.90;1.00
14057;DHT22;7103;54.300;10.180;2023-07-22T03:07:59;13.90;1.00
14057;DHT22;7103;54.300;10.180;2023-07-22T03:10:26;14.00;1.00
14057;DHT22;7103;54.300;10.180;2023-07-22T03:12:56;14.00;1.00
14057;DHT22;7103;54.300;10.180;2023-07-22T03:15:23;13.90;1.00
14057;DHT22;7103;54.300;10.180;2023-07-22T03:17:53;13.80;1.00
14057;DHT22;7103;54.300;10.180;2023-07-22T03:20:20;13.90;1.00
14057;DHT22;7103;54.300;10.180;2023-07-22T03:22:48;13.90;1.00
14057;DHT22;7103;54.300;10.180;2023-07-22T03:25:16;13.80;1.00
14057;DHT22;7103;54.300;10.180;2023-07-22T03:27:46;13.80;1.00
14057;DHT22;7103;54.300;10.180;2023-07-22T03:30:15;13.80;1.00
14057;DHT22;7103;54.300;10.180;2023-07-22T03:32:47;13.80;1.00
14057;DHT22;7103;54.300;10.180;2023-07-22T03:35:15;13.80;1.00
14057;DHT22;7103;54.300;10.180;2023-07-22T03:37:42;13.80;1.00
14057;DHT22;7103;54.300;10.180;2023-07-22T03:40:10;13.80;1.00
14057;DHT22;7103;54.300;10.180;2023-07-22T03:42:51;13.70;1.00
14057;DHT22;7103;54.300;10.180;2023-07-22T03:45:19;13.70;1.00
14057;DHT22;7103;54.300;10.180;2023-07-22T03:47:51;13.70;1.00
14057;DHT22;7103;54.300;10.180;2023-07-22T03:50:19;13.80;1.00
14057;DHT22;7103;54.300;10.180;2023-07-22T03:52:46;13.70;1.00
14057;DHT22;7103;54.300;10.180;2023-07-22T03:55:13;13.80;1.00
14057;DHT22;7103;54.300;10.180;2023-07-22T03:57:40;13.80;1.00
14057;DHT22;7103;54.300;10.180;2023-07-22T04:00:07;13.70;1.00
14057;DHT22;7103;54.300;10.180;2023-07-22T04:02:38;13.80;1.00
14057;DHT22;7103;54.300;10.180;2023-07-22T04:05:05;13.80;1.00
14057;DHT22;7103;54.300;10.180;2023-07-22T04:07:32;13.80;1.00
14057;DHT22;7103;54.300;10.180;2023-07-22T04:09:59;13.90;1.00
14057;DHT22;7103;54.300;10.180;2023-07-22T04:12:26;13.90;1.00
14057;DHT22;7103;54.300;10.180;2023-07-22T04:14:53;13.90;1.00
14057;DHT22;7103;54.300;10.180;2023-07-22T04:17:20;13.90;1.00
14057;DHT22;7103;54.300;10.180;2023-07-22T04:19:47;13.80;1.00
14057;DHT22;7103;54.300;10.180;2023-07-22T04:22:14;13.80;1.00
14057;DHT22;7103;54.300;10.180;2023-07-22T04:24:41;13.80;1.00
14057;DHT22;7103;54.300;10.180;2023-07-22T04:27:08;13.80;1.00
14057;DHT22;7103;54.300;10.180;2023-07-22T04:29:35;13.80;1.00
14057;DHT22;7103;54.300;10.180;2023-07-22T04:32:02;13.80;1.00
14057;DHT22;7103;54.300;10.180;2023-07-22T04:34:31;13.70;1.00
14057;DHT22;7103;54.300;10.180;2023-07-22T04:36:58;13.70;1.00
14057;DHT22;7103;54.300;10.180;2023-07-22T04:39:26;13.70;1.00
14057;DHT22;7103;54.300;10.180;2023-07-22T04:41:53;13.80;1.00
14057;DHT22;7103;54.300;10.180;2023-07-22T04:44:20;13.80;1.00
14057;DHT22;7103;54.300;10.180;2023-07-22T04:46:47;13.90;1.00
14057;DHT22;7103;54.300;10.180;2023-07-22T04:49:14;14.00;1.00
14057;DHT22;7103;54.300;10.180;2023-07-22T04:51:45;14.00;1.00
14057;DHT22;7103;54.300;10.180;2023-07-22T04:54:13;13.90;1.00
14057;DHT22;7103;54.300;10.180;2023-07-22T04:56:42;13.90;1.00
14057;DHT22;7103;54.300;10.180;2023-07-22T04:59:09;13.90;1.00
14057;DHT22;7103;54.300;10.180;2023-07-22T05:01:36;14.00;1.00
14057;DHT22;7103;54.300;10.180;2023-07-22T05:04:04;14.00;1.00
14057;DHT22;7103;54.300;10.180;2023-07-22T05:06:32;14.00;1.00
14057;DHT22;7103;54.300;10.180;2023-07-22T05:09:00;14.00;1.00
14057;DHT22;7103;54.300;10.180;2023-07-22T05:11:27;14.00;1.00
14057;DHT22;7103;54.300;10.180;2023-07-22T05:13:54;14.00;1.00
14057;DHT22;7103;54.300;10.180;2023-07-22T05:16:21;14.10;1.00
14057;DHT22;7103;54.300;10.180;2023-07-22T05:18:48;14.20;1.00
14057;DHT22;7103;54.300;10.180;2023-07-22T05:21:16;14.20;1.00
14057;DHT22;7103;54.300;10.180;2023-07-22T05:23:43;14.30;1.00
14057;DHT22;7103;54.300;10.180;2023-07-22T05:26:10;14.40;1.00
14057;DHT22;7103;54.300;10.180;2023-07-22T05:28:37;14.40;1.00
14057;DHT22;7103;54.300;10.180;2023-07-22T05:31:04;14.30;1.00
14057;DHT22;7103;54.300;10.180;2023-07-22T05:33:31;14.30;1.00
14057;DHT22;7103;54.300;10.180;2023-07-22T05:35:58;14.30;1.00
14057;DHT22;7103;54.300;10.180;2023-07-22T05:38:25;14.40;1.00
14057;DHT22;7103;54.300;10.180;2023-07-22T05:40:53;14.50;1.00
14057;DHT22;7103;54.300;10.180;2023-07-22T05:43:21;14.70;1.00
14057;DHT22;7103;54.300;10.180;2023-07-22T05:45:48;15.30;1.00
14057;DHT22;7103;54.300;10.180;2023-07-22T05:48:15;16.00;1.00
14057;DHT22;7103;54.300;10.180;2023-07-22T05:50:43;16.70;1.00
14057;DHT22;7103;54.300;10.180;2023-07-22T05:53:10;17.20;1.00
14057;DHT22;7103;54.300;10.180;2023-07-22T05:55:37;17.60;1.00
14057;DHT22;7103;54.300;10.180;2023-07-22T05:58:04;18.00;1.00
14057;DHT22;7103;54.300;10.180;2023-07-22T06:00:35;18.60;1.00
14057;DHT22;7103;54.300;10.180;2023-07-22T06:03:02;19.00;1.00
14057;DHT22;7103;54.300;10.180;2023-07-22T06:05:29;19.30;1.00
14057;DHT22;7103;54.300;10.180;2023-07-22T06:07:56;19.40;1.00
14057;DHT22;7103;54.300;10.180;2023-07-22T06:10:24;19.50;1.00
14057;DHT22;7103;54.300;10.180;2023-07-22T06:12:51;19.60;1.00
14057;DHT22;7103;54.300;10.180;2023-07-22T06:15:18;19.90;1.00
14057;DHT22;7103;54.300;10.180;2023-07-22T06:17:46;19.30;1.00
14057;DHT22;7103;54.300;10.180;2023-07-22T06:20:13;18.80;1.00
14057;DHT22;7103;54.300;10.180;2023-07-22T06:22:40;18.70;1.00
14057;DHT22;7103;54.300;10.180;2023-07-22T06:25:08;19.10;1.00
14057;DHT22;7103;54.300;10.180;2023-07-22T06:27:35;19.60;1.00
14057;DHT22;7103;54.300;10.180;2023-07-22T06:30:03;19.90;1.00
14057;DHT22;7103;54.300;10.180;2023-07-22T06:32:30;20.20;1.00
14057;DHT22;7103;54.300;10.180;2023-07-22T06:34:58;19.90;1.00
14057;DHT22;7103;54.300;10.180;2023-07-22T06:37:25;19.30;1.00
14057;DHT22;7103;54.300;10.180;2023-07-22T06:39:53;18.90;1.00
14057;DHT22;7103;54.300;10.180;2023-07-22T06:42:20;18.40;1.00
14057;DHT22;7103;54.300;10.180;2023-07-22T06:44:47;18.00;1.00
14057;DHT22;7103;54.300;10.180;2023-07-22T06:47:14;17.50;1.00
14057;DHT22;7103;54.300;10.180;2023-07-22T06:49:41;17.20;1.00
14057;DHT22;7103;54.300;10.180;2023-07-22T06:52:13;17.10;1.00
14057;DHT22;7103;54.300;10.180;2023-07-22T06:54:40;16.90;1.00
14057;DHT22;7103;54.300;10.180;2023-07-22T06:57:08;16.80;1.00
14057;DHT22;7103;54.300;10.180;2023-07-22T06:59:35;16.90;1.00
14057;DHT22;7103;54.300;10.180;2023-07-22T07:02:03;17.10;1.00
14057;DHT22;7103;54.300;10.180;2023-07-22T07:04:31;17.60;1.00
14057;DHT22;7103;54.300;10.180;2023-07-22T07:06:59;18.40;1.00
14057;DHT22;7103;54.300;10.180;2023-07-22T07:09:26;18.90;1.00
14057;DHT22;7103;54.300;10.180;2023-07-22T07:11:53;19.40;1.00
14057;DHT22;7103;54.300;10.180;2023-07-22T07:14:24;19.60;1.00
14057;DHT22;7103;54.300;10.180;2023-07-22T07:16:54;20.00;1.00
14057;DHT22;7103;54.300;10.180;2023-07-22T07:19:21;20.30;1.00
14057;DHT22;7103;54.300;10.180;2023-07-22T07:21:48;20.60;1.00
14057;DHT22;7103;54.300;10.180;2023-07-22T07:24:16;21.10;1.00
14057;DHT22;7103;54.300;10.180;2023-07-22T07:26:43;21.40;1.00
14057;DHT22;7103;54.300;10.180;2023-07-22T07:29:10;21.60;1.00
14057;DHT22;7103;54.300;10.180;2023-07-22T07:31:38;21.90;99.90
14057;DHT22;7103;54.300;10.180;2023-07-22T07:34:06;22.00;99.90
14057;DHT22;7103;54.300;10.180;2023-07-22T07:36:33;22.30;99.90
14057;DHT22;7103;54.300;10.180;2023-07-22T07:39:01;22.60;99.90
14057;DHT22;7103;54.300;10.180;2023-07-22T07:41:30;22.90;99.90
14057;DHT22;7103;54.300;10.180;2023-07-22T07:43:57;23.20;99.90
14057;DHT22;7103;54.300;10.180;2023-07-22T07:46:26;23.50;99.90
14057;DHT22;7103;54.300;10.180;2023-07-22T07:48:54;23.10;99.90
14057;DHT22;7103;54.300;10.180;2023-07-22T07:51:23;22.90;99.90
14057;DHT22;7103;54.300;10.180;2023-07-22T07:53:50;22.80;99.90
14057;DHT22;7103;54.300;10.180;2023-07-22T07:56:19;22.70;99.90
14057;DHT22;7103;54.300;10.180;2023-07-22T07:58:49;22.50;99.90
14057;DHT22;7103;54.300;10.180;2023-07-22T08:01:17;22.10;99.90
14057;DHT22;7103;54.300;10.180;2023-07-22T08:03:45;22.50;99.90
14057;DHT22;7103;54.300;10.180;2023-07-22T08:06:12;23.00;99.90
14057;DHT22;7103;54.300;10.180;2023-07-22T08:08:41;23.00;99.90
14057;DHT22;7103;54.300;10.180;2023-07-22T08:11:09;22.80;99.90
14057;DHT22;7103;54.300;10.180;2023-07-22T08:13:37;22.30;99.90
14057;DHT22;7103;54.300;10.180;2023-07-22T08:16:06;22.30;99.90
14057;DHT22;7103;54.300;10.180;2023-07-22T08:18:34;22.50;99.90
14057;DHT22;7103;54.300;10.180;2023-07-22T08:21:05;22.90;99.90
14057;DHT22;7103;54.300;10.180;2023-07-22T08:23:36;23.50;99.90
14057;DHT22;7103;54.300;10.180;2023-07-22T08:26:04;24.00;99.90
14057;DHT22;7103;54.300;10.180;2023-07-22T08:28:33;24.00;99.90
14057;DHT22;7103;54.300;10.180;2023-07-22T08:31:00;24.10;99.90
14057;DHT22;7103;54.300;10.180;2023-07-22T08:33:28;24.40;99.90
14057;DHT22;7103;54.300;10.180;2023-07-22T08:36:07;24.20;99.90
14057;DHT22;7103;54.300;10.180;2023-07-22T08:38:34;23.70;99.90
14057;DHT22;7103;54.300;10.180;2023-07-22T08:41:01;23.40;99.90
14057;DHT22;7103;54.300;10.180;2023-07-22T08:43:29;23.70;99.90
14057;DHT22;7103;54.300;10.180;2023-07-22T08:46:00;23.70;99.90
14057;DHT22;7103;54.300;10.180;2023-07-22T08:48:30;23.10;99.90
14057;DHT22;7103;54.300;10.180;2023-07-22T08:51:06;22.90;99.90
14057;DHT22;7103;54.300;10.180;2023-07-22T08:53:33;22.90;99.90
14057;DHT22;7103;54.300;10.180;2023-07-22T08:56:01;23.00;99.90
14057;DHT22;7103;54.300;10.180;2023-07-22T08:58:29;23.10;99.90
14057;DHT22;7103;54.300;10.180;2023-07-22T09:00:57;23.80;99.90
14057;DHT22;7103;54.300;10.180;2023-07-22T09:03:25;24.40;99.90
14057;DHT22;7103;54.300;10.180;2023-07-22T09:05:52;24.60;99.90
14057;DHT22;7103;54.300;10.180;2023-07-22T09:08:20;24.30;99.90
14057;DHT22;7103;54.300;10.180;2023-07-22T09:10:48;23.60;99.90
14057;DHT22;7103;54.300;10.180;2023-07-22T09:13:15;23.30;99.90
14057;DHT22;7103;54.300;10.180;2023-07-22T09:15:42;23.80;99.90
14057;DHT22;7103;54.300;10.180;2023-07-22T09:18:10;23.90;99.90
14057;DHT22;7103;54.300;10.180;2023-07-22T09:20:37;23.50;99.90
14057;DHT22;7103;54.300;10.180;2023-07-22T09:23:05;22.80;99.90
14057;DHT22;7103;54.300;10.180;2023-07-22T09:25:40;22.50;99.90
14057;DHT22;7103;54.300;10.180;2023-07-22T09:28:08;22.90;99.90
14057;DHT22;7103;54.300;10.180;2023-07-22T09:30:38;23.70;99.90
14057;DHT22;7103;54.300;10.180;2023-07-22T09:33:20;24.20;99.90
14057;DHT22;7103;54.300;10.180;2023-07-22T09:35:49;24.30;99.90
14057;DHT22;7103;54.300;10.180;2023-07-22T09:38:23;24.10;99.90
14057;DHT22;7103;54.300;10.180;2023-07-22T09:40:51;23.80;99.90
14057;DHT22;7103;54.300;10.180;2023-07-22T09:43:19;23.50;99.90
14057;DHT22;7103;54.300;10.180;2023-07-22T09:45:49;23.00;99.90
14057;DHT22;7103;54.300;10.180;2023-07-22T09:48:16;22.90;99.90
14057;DHT22;7103;54.300;10.180;2023-07-22T09:50:45;22.70;99.90
14057;DHT22;7103;54.300;10.180;2023-07-22T09:53:16;22.30;99.90
14057;DHT22;7103;54.300;10.180;2023-07-22T09:55:43;22.10;99.90
14057;DHT22;7103;54.300;10.180;2023-07-22T09:58:11;22.00;99.90
14057;DHT22;7103;54.300;10.180;2023-07-22T10:00:47;21.70;99.90
14057;DHT22;7103;54.300;10.180;2023-07-22T10:03:16;21.20;99.90
14057;DHT22;7103;54.300;10.180;2023-07-22T10:05:46;20.70;99.90
14057;DHT22;7103;54.300;10.180;2023-07-22T10:08:18;20.40;99.90
14057;DHT22;7103;54.300;10.180;2023-07-22T10:10:45;20.00;99.90
14057;DHT22;7103;54.300;10.180;2023-07-22T10:13:12;19.60;99.90
14057;DHT22;7103;54.300;10.180;2023-07-22T10:15:40;19.40;99.90
14057;DHT22;7103;54.300;10.180;2023-07-22T10:18:09;19.10;99.90
14057;DHT22;7103;54.300;10.180;2023-07-22T10:20:38;19.10;99.90
14057;DHT22;7103;54.300;10.180;2023-07-22T10:23:07;19.20;99.90
14057;DHT22;7103;54.300;10.180;2023-07-22T10:25:39;20.20;99.90
14057;DHT22;7103;54.300;10.180;2023-07-22T10:28:06;21.00;99.90
14057;DHT22;7103;54.300;10.180;2023-07-22T10:30:33;20.80;99.90
14057;DHT22;7103;54.300;10.180;2023-07-22T10:33:01;20.60;99.90
14057;DHT22;7103;54.300;10.180;2023-07-22T10:38:12;19.40;99.90
14057;DHT22;7103;54.300;10.180;2023-07-22T10:40:55;18.80;99.90
14057;DHT22;7103;54.300;10.180;2023-07-22T10:45:58;17.90;1.00
14057;DHT22;7103;54.300;10.180;2023-07-22T10:48:27;18.30;1.00
14057;DHT22;7103;54.300;10.180;2023-07-22T10:51:02;19.30;1.00
14057;DHT22;7103;54.300;10.180;2023-07-22T10:53:31;20.40;1.00
14057;DHT22;7103;54.300;10.180;2023-07-22T10:56:21;21.00;1.00
14057;DHT22;7103;54.300;10.180;2023-07-22T11:12:11;22.00;99.90
14057;DHT22;7103;54.300;10.180;2023-07-22T11:17:07;23.20;99.90
14057;DHT22;7103;54.300;10.180;2023-07-22T11:19:35;22.90;99.90
14057;DHT22;7103;54.300;10.180;2023-07-22T11:22:03;22.30;99.90
14057;DHT22;7103;54.300;10.180;2023-07-22T11:24:35;22.00;99.90
14057;DHT22;7103;54.300;10.180;2023-07-22T11:27:06;22.00;99.90
14057;DHT22;7103;54.300;10.180;2023-07-22T11:29:35;21.90;99.90
14057;DHT22;7103;54.300;10.180;2023-07-22T11:32:03;21.50;99.90
14057;DHT22;7103;54.300;10.180;2023-07-22T11:34:33;21.20;99.90
14057;DHT22;7103;54.300;10.180;2023-07-22T11:37:00;20.80;99.90
14057;DHT22;7103;54.300;10.180;2023-07-22T11:39:27;20.30;99.90
14057;DHT22;7103;54.300;10.180;2023-07-22T11:42:00;20.00;99.90
14057;DHT22;7103;54.300;10.180;2023-07-22T11:44:28;19.60;99.90
14057;DHT22;7103;54.300;10.180;2023-07-22T11:47:03;18.90;99.90
14057;DHT22;7103;54.300;10.180;2023-07-22T11:49:31;18.60;99.90
14057;DHT22;7103;54.300;10.180;2023-07-22T11:52:15;18.30;99.90
14057;DHT22;7103;54.300;10.180;2023-07-22T11:54:43;18.30;1.00
14057;DHT22;7103;54.300;10.180;2023-07-22T11:57:17;18.20;1.00
14057;DHT22;7103;54.300;10.180;2023-07-22T11:59:50;18.30;1.00
14057;DHT22;7103;54.300;10.180;2023-07-22T12:02:28;18.00;1.00
14057;DHT22;7103;54.300;10.180;2023-07-22T12:05:01;17.70;1.00
14057;DHT22;7103;54.300;10.180;2023-07-22T12:07:33;17.50;1.00
14057;DHT22;7103;54.300;10.180;2023-07-22T12:10:02;17.10;1.00
14057;DHT22;7103;54.300;10.180;2023-07-22T12:12:34;17.10;1.00
14057;DHT22;7103;54.300;10.180;2023-07-22T12:17:52;17.20;1.00
14057;DHT22;7103;54.300;10.180;2023-07-22T12:20:31;17.40;1.00
14057;DHT22;7103;54.300;10.180;2023-07-22T12:22:59;17.40;1.00
14057;DHT22;7103;54.300;10.180;2023-07-22T12:25:26;17.40;1.00
14057;DHT22;7103;54.300;10.180;2023-07-22T12:27:53;17.40;1.00
14057;DHT22;7103;54.300;10.180;2023-07-22T12:30:20;17.40;1.00
14057;DHT22;7103;54.300;10.180;2023-07-22T12:32:48;17.70;1.00
14057;DHT22;7103;54.300;10.180;2023-07-22T12:35:15;17.90;1.00
14057;DHT22;7103;54.300;10.180;2023-07-22T12:37:42;17.90;1.00
14057;DHT22;7103;54.300;10.180;2023-07-22T12:40:10;18.10;1.00
14057;DHT22;7103;54.300;10.180;2023-07-22T12:42:40;18.00;1.00
14057;DHT22;7103;54.300;10.180;2023-07-22T12:45:08;18.00;1.00
14057;DHT22;7103;54.300;10.180;2023-07-22T12:47:35;18.10;1.00
14057;DHT22;7103;54.300;10.180;2023-07-22T12:50:05;18.30;1.00
14057;DHT22;7103;54.300;10.180;2023-07-22T12:52:35;18.40;1.00
14057;DHT22;7103;54.300;10.180;2023-07-22T12:55:02;18.60;1.00
14057;DHT22;7103;54.300;10.180;2023-07-22T12:57:29;18.70;1.00
14057;DHT22;7103;54.300;10.180;2023-07-22T12:59:56;19.00;1.00
14057;DHT22;7103;54.300;10.180;2023-07-22T13:02:23;19.30;1.00
14057;DHT22;7103;54.300;10.180;2023-07-22T13:04:50;19.60;1.00
14057;DHT22;7103;54.300;10.180;2023-07-22T13:07:17;19.60;1.00
14057;DHT22;7103;54.300;10.180;2023-07-22T13:09:44;19.70;1.00
14057;DHT22;7103;54.300;10.180;2023-07-22T13:12:13;19.80;1.00
14057;DHT22;7103;54.300;10.180;2023-07-22T13:14:40;19.80;1.00
14057;DHT22;7103;54.300;10.180;2023-07-22T13:17:07;19.90;1.00
14057;DHT22;7103;54.300;10.180;2023-07-22T13:19:34;20.00;1.00
14057;DHT22;7103;54.300;10.180;2023-07-22T13:22:01;20.00;1.00
14057;DHT22;7103;54.300;10.180;2023-07-22T13:24:28;20.00;1.00
14057;DHT22;7103;54.300;10.180;2023-07-22T13:26:55;20.00;1.00
14057;DHT22;7103;54.300;10.180;2023-07-22T13:29:22;19.90;1.00
14057;DHT22;7103;54.300;10.180;2023-07-22T13:31:50;19.80;1.00
14057;DHT22;7103;54.300;10.180;2023-07-22T13:34:16;19.70;1.00
14057;DHT22;7103;54.300;10.180;2023-07-22T13:36:43;19.60;1.00
14057;DHT22;7103;54.300;10.180;2023-07-22T13:39:10;19.50;1.00
14057;DHT22;7103;54.300;10.180;2023-07-22T13:41:37;19.50;1.00
14057;DHT22;7103;54.300;10.180;2023-07-22T13:44:04;19.40;1.00
14057;DHT22;7103;54.300;10.180;2023-07-22T13:46:31;19.40;1.00
14057;DHT22;7103;54.300;10.180;2023-07-22T13:48:58;19.20;1.00
14057;DHT22;7103;54.300;10.180;2023-07-22T13:51:25;19.00;1.00
14057;DHT22;7103;54.300;10.180;2023-07-22T13:53:53;19.00;1.00
14057;DHT22;7103;54.300;10.180;2023-07-22T13:56:21;19.10;1.00
14057;DHT22;7103;54.300;10.180;2023-07-22T13:58:48;19.10;1.00
14057;DHT22;7103;54.300;10.180;2023-07-22T14:01:15;19.00;1.00
14057;DHT22;7103;54.300;10.180;2023-07-22T14:03:42;18.90;1.00
14057;DHT22;7103;54.300;10.180;2023-07-22T14:06:09;19.00;1.00
14057;DHT22;7103;54.300;10.180;2023-07-22T14:08:36;18.80;1.00
14057;DHT22;7103;54.300;10.180;2023-07-22T14:11:03;18.60;1.00
14057;DHT22;7103;54.300;10.180;2023-07-22T14:13:33;18.50;1.00
14057;DHT22;7103;54.300;10.180;2023-07-22T14:16:01;18.50;1.00
14057;DHT22;7103;54.300;10.180;2023-07-22T14:18:47;18.40;1.00
14057;DHT22;7103;54.300;10.180;2023-07-22T14:21:15;18.50;1.00
14057;DHT22;7103;54.300;10.180;2023-07-22T14:23:42;18.40;1.00
14057;DHT22;7103;54.300;10.180;2023-07-22T14:26:10;18.50;1.00
14057;DHT22;7103;54.300;10.180;2023-07-22T14:28:37;18.40;1.00
14057;DHT22;7103;54.300;10.180;2023-07-22T14:31:04;18.40;1.00
14057;DHT22;7103;54.300;10.180;2023-07-22T14:33:31;18.20;1.00
14057;DHT22;7103;54.300;10.180;2023-07-22T14:35:58;18.30;1.00
14057;DHT22;7103;54.300;10.180;2023-07-22T14:38:25;18.30;1.00
14057;DHT22;7103;54.300;10.180;2023-07-22T14:40:52;18.30;1.00
14057;DHT22;7103;54.300;10.180;2023-07-22T14:43:19;18.30;1.00
14057;DHT22;7103;54.300;10.180;2023-07-22T14:45:48;18.20;1.00
14057;DHT22;7103;54.300;10.180;2023-07-22T14:48:16;18.20;1.00
14057;DHT22;7103;54.300;10.180;2023-07-22T14:50:43;18.10;1.00
14057;DHT22;7103;54.300;10.180;2023-07-22T14:53:10;18.10;1.00
14057;DHT22;7103;54.300;10.180;2023-07-22T14:55:37;18.20;1.00
14057;DHT22;7103;54.300;10.180;2023-07-22T14:58:03;18.10;1.00
14057;DHT22;7103;54.300;10.180;2023-07-22T15:00:30;18.00;1.00
14057;DHT22;7103;54.300;10.180;2023-07-22T15:02:57;17.80;1.00
14057;DHT22;7103;54.300;10.180;2023-07-22T15:05:24;17.50;1.00
14057;DHT22;7103;54.300;10.180;2023-07-22T15:07:52;17.50;1.00
14057;DHT22;7103;54.300;10.180;2023-07-22T15:10:19;17.40;1.00
14057;DHT22;7103;54.300;10.180;2023-07-22T15:12:46;17.40;1.00
14057;DHT22;7103;54.300;10.180;2023-07-22T15:15:13;17.40;1.00
14057;DHT22;7103;54.300;10.180;2023-07-22T15:17:40;17.40;1.00
14057;DHT22;7103;54.300;10.180;2023-07-22T15:20:07;17.50;1.00
14057;DHT22;7103;54.300;10.180;2023-07-22T15:22:34;17.40;1.00
14057;DHT22;7103;54.300;10.180;2023-07-22T15:25:03;17.40;1.00
14057;DHT22;7103;54.300;10.180;2023-07-22T15:27:31;17.40;1.00
14057;DHT22;7103;54.300;10.180;2023-07-22T15:29:58;17.50;1.00
14057;DHT22;7103;54.300;10.180;2023-07-22T15:32:25;17.40;1.00
14057;DHT22;7103;54.300;10.180;2023-07-22T15:34:52;17.40;1.00
14057;DHT22;7103;54.300;10.180;2023-07-22T15:37:19;17.30;1.00
14057;DHT22;7103;54.300;10.180;2023-07-22T15:39:46;17.20;1.00
14057;DHT22;7103;54.300;10.180;2023-07-22T15:42:13;17.20;1.00
14057;DHT22;7103;54.300;10.180;2023-07-22T15:44:40;17.30;1.00
14057;DHT22;7103;54.300;10.180;2023-07-22T15:47:07;17.30;1.00
14057;DHT22;7103;54.300;10.180;2023-07-22T15:49:34;17.30;1.00
14057;DHT22;7103;54.300;10.180;2023-07-22T15:52:01;17.20;1.00
14057;DHT22;7103;54.300;10.180;2023-07-22T15:54:28;17.10;1.00
14057;DHT22;7103;54.300;10.180;2023-07-22T15:56:55;17.10;1.00
14057;DHT22;7103;54.300;10.180;2023-07-22T15:59:22;17.10;1.00
14057;DHT22;7103;54.300;10.180;2023-07-22T16:01:49;17.10;1.00
14057;DHT22;7103;54.300;10.180;2023-07-22T16:04:16;17.00;1.00
14057;DHT22;7103;54.300;10.180;2023-07-22T16:06:43;16.90;1.00
14057;DHT22;7103;54.300;10.180;2023-07-22T16:09:10;17.00;1.00
14057;DHT22;7103;54.300;10.180;2023-07-22T16:11:37;16.90;1.00